• Join FlightAware (Why Join?)
  • Login
  • US Flag 
03:17PM EST


 

Airport Tracker/Info


-or-


 

Live Flight TrackerFlight Track Log ✈ ASA124 ✈ 04-Sep-2013 ✈ PAFA / FAI - KSEA

Flight Track Log - Related Links

Times and Time Zones

All times are in EDT time to prevent confusion due to time zone crossing. See the ASA124 flight status page for this flight to view local times or setup timezone preferences in your user account.

Time Position Orientation Groundspeed Altitude Reporting Facility
EDT Latitude Longitude Course Direction KTS MPH feet Rate Location/Type
09:13PM 64.7500 -147.7833 123° Southeast 240 276 4,000  Level Anchorage Center
09:14PM 64.7000 -147.6500 131° Southeast 270 311 6,800 2,760 Climbing Anchorage Center
09:15PM 64.6500 -147.5000 128° Southeast 290 334 9,500 2,400 Climbing Anchorage Center
09:16PM 64.6167 -147.3167 113° Southeast 330 380 11,600 2,280 Climbing Anchorage Center
09:17PM 64.5667 -147.1333 122° Southeast 340 391 14,100 2,400 Climbing Anchorage Center
09:18PM 64.3857 -146.5107 123° Southeast  Level FlightAware Approximate
09:18PM 64.5000 -146.9333 128° Southeast 360 414 16,500  Level Anchorage Center
09:19PM 64.4500 -146.7333 120° Southeast 400 460 17,700 2,040 Climbing Anchorage Center
09:20PM 64.3833 -146.5000 123° Southeast 410 472 20,600 2,700 Climbing Anchorage Center
09:21PM 64.3167 -146.2833 125° Southeast 420 483 23,100 1,800 Climbing Anchorage Center
09:22PM 64.2500 -146.0333 121° Southeast 430 495 24,200 1,140 Climbing Anchorage Center
09:23PM 64.1833 -145.8000 123° Southeast 450 518 25,400 1,740 Climbing Anchorage Center
09:24PM 64.1167 -145.5667 123° Southeast 460 529 27,700 2,100 Climbing Anchorage Center
09:25PM 64.0333 -145.3167 127° Southeast 450 518 29,700 1,380 Climbing Anchorage Center
09:26PM 63.9667 -145.0833 123° Southeast 450 518 30,600 840 Climbing Anchorage Center
09:27PM 63.9000 -144.8333 121° Southeast 470 541 31,400 900 Climbing Anchorage Center
09:28PM 63.8167 -144.5833 127° Southeast 490 564 32,400 1,320 Climbing Anchorage Center
09:29PM 63.7333 -144.3333 127° Southeast 470 541 34,100 1,380 Climbing Anchorage Center
09:30PM 63.6667 -144.1000 123° Southeast 470 541 35,200 960 Climbing Anchorage Center
09:31PM 63.5833 -143.8667 129° Southeast 450 518 36,100 720 Climbing Anchorage Center
09:32PM 63.5167 -143.6333 123° Southeast 470 541 36,700 420 Climbing Anchorage Center
09:33PM 63.4333 -143.4000 129° Southeast 470 541 37,000 120 Climbing Anchorage Center
09:34PM 63.3667 -143.1500 121° Southeast 470 541 37,000  Level Anchorage Center
09:35PM 63.2833 -142.9333 130° Southeast 460 529 37,000  Level Anchorage Center
09:36PM 63.2167 -142.7000 122° Southeast 460 529 37,000  Level Anchorage Center
09:37PM 63.1333 -142.4500 126° Southeast 480 552 37,000  Level Anchorage Center
09:38PM 63.0500 -142.2333 130° Southeast 470 541 37,000  Level Anchorage Center
09:39PM 62.9833 -142.0000 122° Southeast 460 529 37,000  Level Anchorage Center
09:40PM 62.9000 -141.7833 130° Southeast 450 518 37,000  Level Anchorage Center
09:41PM 62.8000 -141.6000 140° Southeast 450 518 37,000  Level Anchorage Center
09:42PM 62.7000 -141.4333 143° Southeast 450 518 37,000  Level Anchorage Center
09:43PM 62.6167 -141.2500 135° Southeast 450 518 37,000  Level Anchorage Center
09:44PM 62.5167 -141.1000 145° Southeast 450 518 37,000  Level Anchorage Center
09:45PM 62.4333 -140.9333 137° Southeast 440 506 37,000  Level Anchorage Center
09:47PM 62.2977 -140.6802 139° Southeast  Level FlightAware Approximate
09:52PM 61.7500 -139.7000 141° Southeast 460 529 37,000  Level Anchorage Center
09:54PM 61.6586 -139.5284 139° Southeast  Level FlightAware Approximate
09:54PM 61.5500 -139.3333 139° Southeast 450 518 37,000  Level Anchorage Center
09:55PM 61.5665 -139.3678 140° Southeast  Level FlightAware Approximate
09:55PM 61.4500 -139.1667 141° Southeast 460 529 37,000  Level Anchorage Center
09:56PM 61.4742 -139.2081 140° Southeast  Level FlightAware Approximate
09:56PM 61.3500 -139.0000 141° Southeast 450 518 37,000  Level Anchorage Center
09:57PM 61.3818 -139.0494 141° Southeast  Level FlightAware Approximate
09:57PM 61.2500 -138.8667 147° Southeast 450 518 37,000  Level Anchorage Center
09:58PM 61.1500 -138.7333 147° Southeast 440 506 37,000  Level Anchorage Center
09:59PM 61.0500 -138.6000 147° Southeast 440 506 37,000  Level Anchorage Center
10:00PM 60.9333 -138.4667 151° Southeast 440 506 37,000  Level Anchorage Center
10:01PM 60.8333 -138.3333 147° Southeast 430 495 37,000  Level Anchorage Center
10:02PM 60.7333 -138.2000 147° Southeast 430 495 37,000  Level Anchorage Center
10:03PM 60.6333 -138.0667 147° Southeast 440 506 37,000  Level Anchorage Center
10:04PM 60.5333 -137.9500 150° Southeast 430 495 37,000  Level Anchorage Center
10:05PM 60.4167 -137.8167 151° Southeast 430 495 37,000  Level Anchorage Center
10:06PM 60.3167 -137.7000 150° Southeast 430 495 37,000  Level Anchorage Center
10:07PM 60.2167 -137.5667 146° Southeast 420 483 37,000  Level Anchorage Center
10:08PM 60.1167 -137.4500 150° Southeast 430 495 37,000  Level Anchorage Center
10:09PM 60.0167 -137.3167 146° Southeast 430 495 37,000  Level Anchorage Center
10:10PM 59.9333 -137.2167 149° Southeast 430 495 37,000  Level Anchorage Center
10:11PM 59.8333 -137.1000 150° Southeast 430 495 37,000  Level Anchorage Center
10:12PM 59.7333 -136.9833 150° Southeast 430 495 37,000  Level Anchorage Center
10:13PM 59.6167 -136.8667 153° Southeast 430 495 37,000  Level Anchorage Center
10:14PM 59.5167 -136.7500 149° Southeast 430 495 37,000  Level Anchorage Center
10:15PM 59.4167 -136.6333 149° Southeast 430 495 37,000  Level Anchorage Center
10:16PM 59.3167 -136.5000 146° Southeast 430 495 37,000  Level Anchorage Center
10:17PM 59.2167 -136.3833 149° Southeast 430 495 37,000  Level Anchorage Center
10:18PM 59.1000 -136.2667 153° Southeast 430 495 37,000  Level Anchorage Center
10:19PM 59.0000 -136.1500 149° Southeast 430 495 37,000  Level Anchorage Center
10:20PM 58.9000 -136.0333 149° Southeast 430 495 37,000  Level Anchorage Center
10:21PM 58.8000 -135.9167 149° Southeast 430 495 37,000  Level Anchorage Center
10:22PM 58.6833 -135.8167 156° South 430 495 37,000  Level Anchorage Center
10:23PM 58.5833 -135.7000 149° Southeast 440 506 37,000  Level Anchorage Center
10:24PM 58.4833 -135.5500 142° Southeast 440 506 37,000  Level Anchorage Center
10:25PM 58.3833 -135.3833 139° Southeast 460 529 37,000  Level Anchorage Center
10:26PM 58.2833 -135.2333 142° Southeast 460 529 37,000  Level Anchorage Center
10:27PM 58.1833 -135.0500 136° Southeast 470 541 37,000  Level Anchorage Center
10:28PM 58.0833 -134.9000 142° Southeast 470 541 37,000  Level Anchorage Center
10:29PM 58.0000 -134.7500 136° Southeast 460 529 37,000  Level Anchorage Center
10:30PM 57.9000 -134.5833 138° Southeast 450 518 37,000  Level Anchorage Center
10:31PM 57.8000 -134.4333 141° Southeast 460 529 37,000  Level Anchorage Center
10:32PM 57.7000 -134.2833 141° Southeast 450 518 37,000  Level Anchorage Center
10:33PM 57.6000 -134.1333 141° Southeast 450 518 37,000  Level Anchorage Center
10:34PM 57.5000 -133.9667 138° Southeast 460 529 37,000  Level Anchorage Center
10:35PM 57.4167 -133.8167 136° Southeast 460 529 37,000  Level Anchorage Center
10:36PM 57.3167 -133.6667 141° Southeast 460 529 37,000  Level Anchorage Center
10:37PM 57.2167 -133.5167 141° Southeast 460 529 37,000  Level Anchorage Center
10:38PM 57.1167 -133.3667 141° Southeast 460 529 37,000  Level Anchorage Center
10:39PM 57.0167 -133.2167 141° Southeast 460 529 37,000  Level Anchorage Center
10:40PM 56.9167 -133.0667 141° Southeast 470 541 37,000  Level Anchorage Center
10:41PM 56.8167 -132.9167 141° Southeast 470 541 37,000  Level Anchorage Center
10:42PM 56.7167 -132.7667 141° Southeast 470 541 37,000  Level Anchorage Center
10:43PM 56.6167 -132.6167 140° Southeast 460 529 37,000  Level Anchorage Center
10:44PM 56.5167 -132.4667 140° Southeast 470 541 37,000  Level Anchorage Center
10:45PM 56.4000 -132.3167 145° Southeast 470 541 37,000  Level Anchorage Center
10:46PM 56.3000 -132.1833 143° Southeast 480 552 37,000  Level Anchorage Center
10:47PM 56.2000 -132.0333 140° Southeast 460 529 37,000  Level Anchorage Center
10:48PM 56.1000 -131.8833 140° Southeast 470 541 37,000  Level Anchorage Center
10:49PM 56.0000 -131.7500 143° Southeast 470 541 37,000  Level Anchorage Center
10:50PM 55.9000 -131.6000 140° Southeast 470 541 37,000  Level Anchorage Center
10:51PM 55.8000 -131.4667 143° Southeast 460 529 37,000  Level Anchorage Center
10:52PM 55.7167 -131.3500 142° Southeast 460 529 37,000  Level Anchorage Center
10:53PM 55.6000 -131.1833 141° Southeast 470 541 37,000  Level Anchorage Center
10:54PM 55.4833 -131.0333 144° Southeast 470 541 37,000  Level Anchorage Center
10:55PM 55.3833 -130.9000 143° Southeast 470 541 37,000  Level Anchorage Center
10:56PM 55.2833 -130.7500 139° Southeast 470 541 37,000  Level Anchorage Center
10:57PM 55.1667 -130.6167 147° Southeast 470 541 37,000  Level Anchorage Center
10:58PM 55.1000 -130.5667 157° South 470 541 37,000  Level Vancouver Center
10:59PM 54.9833 -130.4333 147° Southeast 470 541 37,000  Level Vancouver Center
11:00PM 54.8833 -130.2667 136° Southeast 470 541 37,000  Level Vancouver Center
11:01PM 54.7833 -130.1333 142° Southeast 480 552 37,000  Level Vancouver Center
11:02PM 54.6833 -130.0000 142° Southeast 470 541 37,000  Level Vancouver Center
11:03PM 54.5667 -129.8667 146° Southeast 480 552 37,000  Level Vancouver Center
11:04PM 54.4667 -129.7500 146° Southeast 470 541 37,000  Level Vancouver Center
11:05PM 54.3667 -129.5833 136° Southeast 470 541 37,000  Level Vancouver Center
11:06PM 54.2500 -129.4500 146° Southeast 480 552 37,000  Level Vancouver Center
11:07PM 54.1333 -129.3333 150° Southeast 480 552 37,000  Level Vancouver Center
11:08PM 54.0500 -129.2000 137° Southeast 470 541 37,000  Level Vancouver Center
11:09PM 53.9333 -129.0667 146° Southeast 480 552 37,000  Level Vancouver Center
11:10PM 53.8167 -128.9500 149° Southeast 470 541 37,000  Level Vancouver Center
11:11PM 53.7333 -128.8167 137° Southeast 480 552 37,000  Level Vancouver Center
11:12PM 53.6167 -128.6667 143° Southeast 470 541 37,000  Level Vancouver Center
11:13PM 53.5000 -128.5333 146° Southeast 480 552 37,000  Level Vancouver Center
11:14PM 53.3833 -128.4167 149° Southeast 490 564 37,000  Level Vancouver Center
11:15PM 53.2833 -128.3000 145° Southeast 480 552 37,000  Level Vancouver Center
11:16PM 53.1667 -128.1500 142° Southeast 500 575 37,000  Level Vancouver Center
11:17PM 53.0500 -128.0167 145° Southeast 480 552 37,000  Level Vancouver Center
11:18PM 52.9667 -127.9000 140° Southeast 470 541 37,000  Level Vancouver Center
11:19PM 52.8500 -127.7833 149° Southeast 470 541 37,000  Level Vancouver Center
11:20PM 52.7333 -127.6333 142° Southeast 470 541 37,000  Level Vancouver Center
11:21PM 52.6167 -127.5167 149° Southeast 470 541 37,000  Level Vancouver Center
11:22PM 52.5000 -127.3833 145° Southeast 470 541 37,000  Level Vancouver Center
11:23PM 52.4000 -127.2500 141° Southeast 470 541 37,000  Level Vancouver Center
11:24PM 52.3000 -127.1333 144° Southeast 480 552 37,000  Level Vancouver Center
11:25PM 52.1833 -127.0167 148° Southeast 480 552 37,000  Level Vancouver Center
11:26PM 52.0667 -126.9000 148° Southeast 470 541 37,000  Level Vancouver Center
11:27PM 51.9667 -126.7833 144° Southeast 460 529 37,000  Level Vancouver Center
11:28PM 51.8667 -126.6667 144° Southeast 460 529 37,000  Level Vancouver Center
11:29PM 51.7667 -126.5500 144° Southeast 460 529 37,000  Level Vancouver Center
11:30PM 51.6500 -126.4333 148° Southeast 460 529 37,000  Level Vancouver Center
11:31PM 51.5500 -126.3167 144° Southeast 470 541 37,000  Level Vancouver Center
11:32PM 51.4333 -126.2167 152° Southeast 470 541 37,000  Level Vancouver Center
11:33PM 51.3167 -126.1000 148° Southeast 470 541 37,000  Level Vancouver Center
11:34PM 51.2000 -125.9500 141° Southeast 460 529 37,000  Level Vancouver Center
11:35PM 51.1000 -125.8500 148° Southeast 460 529 37,000  Level Vancouver Center
11:36PM 51.0167 -125.7333 139° Southeast 460 529 37,000  Level Vancouver Center
11:37PM 50.9000 -125.6167 148° Southeast 460 529 37,000  Level Vancouver Center
11:38PM 50.8000 -125.5167 148° Southeast 460 529 37,000  Level Vancouver Center
11:39PM 50.6833 -125.4000 148° Southeast 450 518 37,000  Level Vancouver Center
11:40PM 50.5833 -125.3000 148° Southeast 450 518 37,000  Level Vancouver Center
11:41PM 50.4833 -125.1833 143° Southeast 440 506 37,000  Level Vancouver Center
11:42PM 50.3833 -125.1000 152° Southeast 430 495 37,000  Level Vancouver Center
11:43PM 50.2833 -125.0000 147° Southeast 430 495 37,000  Level Vancouver Center
11:44PM 50.1667 -124.9000 151° Southeast 430 495 37,000  Level Vancouver Center
11:45PM 50.0667 -124.7833 143° Southeast 430 495 37,000  Level Vancouver Center
11:46PM 49.9667 -124.7000 152° Southeast 430 495 37,000  Level Vancouver Center
11:47PM 49.8667 -124.6000 147° Southeast 430 495 37,000  Level Vancouver Center
11:48PM 49.7667 -124.5000 147° Southeast 430 495 37,000  Level Vancouver Center
11:49PM 49.6667 -124.4000 147° Southeast 430 495 37,000  Level Vancouver Center
11:50PM 49.5667 -124.2833 143° Southeast 430 495 37,000  Level Vancouver Center
11:51PM 49.4667 -124.2167 157° South 430 495 37,000  Level Vancouver Center
11:52PM 49.3667 -124.1000 143° Southeast 420 483 37,000 -120 Level Vancouver Center
11:53PM 49.2667 -124.0000 147° Southeast 420 483 36,800 -660 Descending Vancouver Center
11:54PM 49.1667 -123.9333 156° South 410 472 35,700 -1,020 Descending Vancouver Center
11:55PM 49.0833 -123.8167 137° Southeast 400 460 34,800 -960 Descending Vancouver Center
11:56PM 48.9833 -123.7500 156° South 390 449 33,800 -960 Descending Vancouver Center
11:57PM 48.9000 -123.6667 147° Southeast 380 437 32,900 -1,020 Descending Vancouver Center
11:58PM 48.8000 -123.5667 147° Southeast 380 437 31,800 -1,080 Descending Vancouver Center
11:59PM 48.7167 -123.5000 152° Southeast 380 437 30,800 -1,020 Descending Vancouver Center
12:00AM 48.6167 -123.4000 147° Southeast 370 426 29,800 -1,020 Descending Vancouver Center
12:01AM 48.5333 -123.3167 146° Southeast 380 437 28,800 -1,020 Descending Vancouver Center
12:02AM 48.4500 -123.2500 152° Southeast 370 426 27,800 -1,020 Descending Vancouver Center
12:03AM 48.3667 -123.1667 146° Southeast 360 414 26,800 -1,320 Descending Vancouver Center
12:04AM 48.2825 -123.0719 143° Southeast 361 415 24,900 -1,800 Descending Seattle Center
12:05AM 48.2175 -123.0122 149° Southeast 347 399 23,300 -2,100 Descending Seattle Center
12:06AM 48.1183 -122.9236 149° Southeast 335 386 20,900 -1,980 Descending Seattle Center
12:07AM 48.0386 -122.8514 149° Southeast 334 384 18,900 -1,680 Descending Seattle Center
12:08AM 47.9617 -122.7814 149° Southeast 323 372 17,500 -1,560 Descending Seattle Center
12:09AM 47.8878 -122.7161 149° Southeast 312 359 15,800 -1,740 Descending Seattle Center
12:10AM 47.8125 -122.6453 148° Southeast 309 356 14,000 -1,740 Descending Seattle Center
12:11AM 47.7386 -122.5803 149° Southeast 307 353 12,300 -1,320 Descending Seattle Center
12:12AM 47.6694 -122.5164 148° Southeast 273 314 11,400 -1,140 Descending Seattle Center
12:13AM 47.6050 -122.4631 151° Southeast 258 297 10,100 -1,140 Descending Seattle Center
12:14AM 47.5369 -122.4578 177° South 243 280 9,200 -840 Descending Seattle Center
12:15AM 47.4739 -122.4628 183° South 221 254 8,500 -840 Descending Seattle Center
12:16AM 47.4078 -122.4564 176° South 250 288 7,600 -1,200 Descending Seattle Center
12:17AM 47.3364 -122.4464 175° South 242 278 6,100 -1,800 Descending Seattle Center
12:18AM 47.2858 -122.4056 151° Southeast 232 267 4,000 -1,620 Descending Seattle Center
12:19AM 47.3072 -122.3317 67° East 186 214 2,900 -1,020 Descending Seattle Center
12:20AM 47.3489 -122.3119 18° North 163 188 2,000 -840 Descending Seattle Center
12:21AM 47.3911 -122.3117 360° North 152 175 1,300 -720 Descending Seattle Center
12:23AM 47.4358 -122.3122 360° North 142 163 500 -480 Descending Seattle Center
12:24AM 47.4747 -122.3111 North 142 163 400 -120 Descending Seattle Center
12:25AM 47.4499 -122.3118 180° South  Level Estimated